Terminal Aerodrome Forecast
Issued by NWS

Home | Current Version | Previous Version | Text Only | Print | Product List | Glossary On
Versions: 1 2 3 4 5 6 7 8 9 10 11 12 13 14 15 16
000
FTUS46 KPDT 251720
TAFBDN
TAF
KBDN 251720Z 2518/2618 VRB03KT P6SM SCT200
     FM252100 35008KT P6SM FEW090 BKN200
     FM260600 VRB04KT P6SM BKN200=

USA.gov is the U.S. government's official web portal to all federal, state and local government web resources and services.